sensor_id;sensor_type;location;lat;lon;timestamp;P1;durP1;ratioP1;P2;durP2;ratioP2
51915;SDS011;37942;53.218;6.548;2022-08-11T00:01:06;16.70;;;7.45;;
51915;SDS011;37942;53.218;6.548;2022-08-11T00:03:32;17.55;;;7.47;;
51915;SDS011;37942;53.218;6.548;2022-08-11T00:05:59;15.63;;;7.47;;
51915;SDS011;37942;53.218;6.548;2022-08-11T00:08:27;14.73;;;7.18;;
51915;SDS011;37942;53.218;6.548;2022-08-11T00:11:09;17.02;;;8.32;;
51915;SDS011;37942;53.218;6.548;2022-08-11T00:13:41;14.63;;;7.35;;
51915;SDS011;37942;53.218;6.548;2022-08-11T00:16:22;14.57;;;8.52;;
51915;SDS011;37942;53.218;6.548;2022-08-11T00:18:50;14.40;;;7.93;;
51915;SDS011;37942;53.218;6.548;2022-08-11T00:21:17;15.40;;;8.13;;
51915;SDS011;37942;53.218;6.548;2022-08-11T00:24:05;14.68;;;8.00;;
51915;SDS011;37942;53.218;6.548;2022-08-11T00:26:32;16.90;;;8.35;;
51915;SDS011;37942;53.218;6.548;2022-08-11T00:29:09;15.10;;;7.78;;
51915;SDS011;37942;53.218;6.548;2022-08-11T00:31:36;14.52;;;8.10;;
51915;SDS011;37942;53.218;6.548;2022-08-11T00:34:03;15.57;;;8.05;;
51915;SDS011;37942;53.218;6.548;2022-08-11T00:36:38;15.60;;;8.43;;
51915;SDS011;37942;53.218;6.548;2022-08-11T00:39:05;13.93;;;8.23;;
51915;SDS011;37942;53.218;6.548;2022-08-11T00:59:38;16.77;;;8.18;;
51915;SDS011;37942;53.218;6.548;2022-08-11T01:07:29;15.98;;;8.48;;
51915;SDS011;37942;53.218;6.548;2022-08-11T01:12:48;16.15;;;8.23;;
51915;SDS011;37942;53.218;6.548;2022-08-11T01:50:27;19.27;;;9.68;;
51915;SDS011;37942;53.218;6.548;2022-08-11T01:55:36;17.20;;;9.77;;
51915;SDS011;37942;53.218;6.548;2022-08-11T02:00:31;20.08;;;10.10;;
51915;SDS011;37942;53.218;6.548;2022-08-11T02:03:09;19.65;;;10.10;;
51915;SDS011;37942;53.218;6.548;2022-08-11T02:05:46;22.48;;;10.60;;
51915;SDS011;37942;53.218;6.548;2022-08-11T02:10:57;19.80;;;10.90;;
51915;SDS011;37942;53.218;6.548;2022-08-11T02:13:46;18.50;;;10.18;;
51915;SDS011;37942;53.218;6.548;2022-08-11T02:19:06;17.85;;;9.98;;
51915;SDS011;37942;53.218;6.548;2022-08-11T02:21:58;19.48;;;10.63;;
51915;SDS011;37942;53.218;6.548;2022-08-11T02:24:46;19.38;;;11.07;;
51915;SDS011;37942;53.218;6.548;2022-08-11T02:27:18;15.57;;;9.80;;
51915;SDS011;37942;53.218;6.548;2022-08-11T02:29:58;17.85;;;10.90;;
51915;SDS011;37942;53.218;6.548;2022-08-11T02:33:15;18.40;;;11.07;;
51915;SDS011;37942;53.218;6.548;2022-08-11T02:35:42;22.00;;;11.32;;
51915;SDS011;37942;53.218;6.548;2022-08-11T02:38:20;17.27;;;10.15;;
51915;SDS011;37942;53.218;6.548;2022-08-11T02:46:06;21.52;;;10.65;;
51915;SDS011;37942;53.218;6.548;2022-08-11T02:57:37;23.48;;;13.02;;
51915;SDS011;37942;53.218;6.548;2022-08-11T03:00:06;21.63;;;12.18;;
51915;SDS011;37942;53.218;6.548;2022-08-11T03:13:17;19.55;;;11.65;;
51915;SDS011;37942;53.218;6.548;2022-08-11T03:16:20;21.27;;;12.57;;
51915;SDS011;37942;53.218;6.548;2022-08-11T03:22:04;21.98;;;12.73;;
51915;SDS011;37942;53.218;6.548;2022-08-11T03:29:34;19.02;;;11.43;;
51915;SDS011;37942;53.218;6.548;2022-08-11T03:32:01;19.77;;;12.30;;
51915;SDS011;37942;53.218;6.548;2022-08-11T03:34:30;20.95;;;13.38;;
51915;SDS011;37942;53.218;6.548;2022-08-11T03:48:28;20.48;;;13.65;;
51915;SDS011;37942;53.218;6.548;2022-08-11T03:51:38;21.48;;;13.32;;
51915;SDS011;37942;53.218;6.548;2022-08-11T03:57:19;24.70;;;13.63;;
51915;SDS011;37942;53.218;6.548;2022-08-11T04:00:03;19.75;;;12.35;;
51915;SDS011;37942;53.218;6.548;2022-08-11T04:24:10;24.92;;;13.35;;
51915;SDS011;37942;53.218;6.548;2022-08-11T04:32:03;21.85;;;14.00;;
51915;SDS011;37942;53.218;6.548;2022-08-11T04:37:08;25.63;;;14.50;;
51915;SDS011;37942;53.218;6.548;2022-08-11T04:50:46;25.23;;;13.68;;
51915;SDS011;37942;53.218;6.548;2022-08-11T04:56:22;24.08;;;13.60;;
51915;SDS011;37942;53.218;6.548;2022-08-11T05:15:12;19.13;;;12.13;;
51915;SDS011;37942;53.218;6.548;2022-08-11T05:17:59;20.42;;;12.73;;
51915;SDS011;37942;53.218;6.548;2022-08-11T05:20:47;20.35;;;11.60;;
51915;SDS011;37942;53.218;6.548;2022-08-11T05:23:33;18.83;;;11.25;;
51915;SDS011;37942;53.218;6.548;2022-08-11T05:26:19;20.02;;;11.45;;
51915;SDS011;37942;53.218;6.548;2022-08-11T05:29:22;18.60;;;10.35;;
51915;SDS011;37942;53.218;6.548;2022-08-11T05:32:07;20.70;;;11.68;;
51915;SDS011;37942;53.218;6.548;2022-08-11T05:40:15;18.52;;;10.32;;
51915;SDS011;37942;53.218;6.548;2022-08-11T05:43:01;17.38;;;10.57;;
51915;SDS011;37942;53.218;6.548;2022-08-11T05:45:56;16.35;;;10.77;;
51915;SDS011;37942;53.218;6.548;2022-08-11T05:48:41;23.25;;;10.48;;
51915;SDS011;37942;53.218;6.548;2022-08-11T05:51:33;21.83;;;9.90;;
51915;SDS011;37942;53.218;6.548;2022-08-11T05:54:18;16.77;;;10.07;;
51915;SDS011;37942;53.218;6.548;2022-08-11T05:57:03;19.38;;;10.00;;
51915;SDS011;37942;53.218;6.548;2022-08-11T05:59:29;22.08;;;10.40;;
51915;SDS011;37942;53.218;6.548;2022-08-11T06:02:03;16.35;;;9.70;;
51915;SDS011;37942;53.218;6.548;2022-08-11T06:04:29;17.73;;;9.35;;
51915;SDS011;37942;53.218;6.548;2022-08-11T06:09:22;18.13;;;10.23;;
51915;SDS011;37942;53.218;6.548;2022-08-11T06:11:49;20.42;;;10.45;;
51915;SDS011;37942;53.218;6.548;2022-08-11T06:14:15;19.20;;;9.82;;
51915;SDS011;37942;53.218;6.548;2022-08-11T06:16:43;17.95;;;9.63;;
51915;SDS011;37942;53.218;6.548;2022-08-11T06:19:11;16.75;;;8.98;;
51915;SDS011;37942;53.218;6.548;2022-08-11T06:21:42;18.40;;;9.75;;
51915;SDS011;37942;53.218;6.548;2022-08-11T06:24:09;17.08;;;9.63;;
51915;SDS011;37942;53.218;6.548;2022-08-11T06:26:36;16.73;;;9.15;;
51915;SDS011;37942;53.218;6.548;2022-08-11T06:29:02;18.08;;;8.95;;
51915;SDS011;37942;53.218;6.548;2022-08-11T06:31:30;14.45;;;7.47;;
51915;SDS011;37942;53.218;6.548;2022-08-11T06:36:40;17.50;;;8.93;;
51915;SDS011;37942;53.218;6.548;2022-08-11T06:42:10;15.73;;;7.70;;
51915;SDS011;37942;53.218;6.548;2022-08-11T06:44:39;17.63;;;8.25;;
51915;SDS011;37942;53.218;6.548;2022-08-11T06:47:07;16.35;;;7.72;;
51915;SDS011;37942;53.218;6.548;2022-08-11T06:49:35;19.20;;;9.02;;
51915;SDS011;37942;53.218;6.548;2022-08-11T06:52:27;15.45;;;7.25;;
51915;SDS011;37942;53.218;6.548;2022-08-11T06:54:54;15.13;;;8.20;;
51915;SDS011;37942;53.218;6.548;2022-08-11T06:57:31;16.70;;;8.10;;
51915;SDS011;37942;53.218;6.548;2022-08-11T07:00:17;18.60;;;8.80;;
51915;SDS011;37942;53.218;6.548;2022-08-11T07:03:11;14.48;;;8.10;;
51915;SDS011;37942;53.218;6.548;2022-08-11T07:14:00;16.60;;;7.40;;
51915;SDS011;37942;53.218;6.548;2022-08-11T07:16:46;13.85;;;7.47;;
51915;SDS011;37942;53.218;6.548;2022-08-11T07:19:13;18.20;;;7.55;;
51915;SDS011;37942;53.218;6.548;2022-08-11T07:22:03;15.35;;;6.32;;
51915;SDS011;37942;53.218;6.548;2022-08-11T07:25:00;13.77;;;6.30;;
51915;SDS011;37942;53.218;6.548;2022-08-11T07:27:46;13.57;;;6.50;;
51915;SDS011;37942;53.218;6.548;2022-08-11T07:30:33;14.55;;;6.13;;
51915;SDS011;37942;53.218;6.548;2022-08-11T07:33:01;13.23;;;6.13;;
51915;SDS011;37942;53.218;6.548;2022-08-11T07:40:22;15.38;;;5.32;;
51915;SDS011;37942;53.218;6.548;2022-08-11T07:42:49;17.48;;;5.38;;
51915;SDS011;37942;53.218;6.548;2022-08-11T07:45:15;11.20;;;5.38;;
51915;SDS011;37942;53.218;6.548;2022-08-11T07:48:01;11.88;;;5.35;;
51915;SDS011;37942;53.218;6.548;2022-08-11T07:50:45;21.25;;;5.53;;
51915;SDS011;37942;53.218;6.548;2022-08-11T07:53:30;11.50;;;5.75;;
51915;SDS011;37942;53.218;6.548;2022-08-11T07:56:01;11.00;;;4.88;;
51915;SDS011;37942;53.218;6.548;2022-08-11T07:58:29;10.95;;;5.18;;
51915;SDS011;37942;53.218;6.548;2022-08-11T08:01:21;11.27;;;4.75;;
51915;SDS011;37942;53.218;6.548;2022-08-11T08:04:07;13.25;;;5.47;;
51915;SDS011;37942;53.218;6.548;2022-08-11T08:06:52;10.40;;;4.40;;
51915;SDS011;37942;53.218;6.548;2022-08-11T08:09:41;10.55;;;4.35;;
51915;SDS011;37942;53.218;6.548;2022-08-11T08:12:26;11.32;;;4.20;;
51915;SDS011;37942;53.218;6.548;2022-08-11T08:15:11;9.40;;;4.03;;
51915;SDS011;37942;53.218;6.548;2022-08-11T08:17:58;12.80;;;4.30;;
51915;SDS011;37942;53.218;6.548;2022-08-11T08:20:36;11.88;;;4.20;;
51915;SDS011;37942;53.218;6.548;2022-08-11T08:23:05;9.27;;;4.10;;
51915;SDS011;37942;53.218;6.548;2022-08-11T08:25:33;10.43;;;3.95;;
51915;SDS011;37942;53.218;6.548;2022-08-11T08:28:01;8.63;;;3.83;;
51915;SDS011;37942;53.218;6.548;2022-08-11T08:30:28;15.95;;;4.32;;
51915;SDS011;37942;53.218;6.548;2022-08-11T08:33:35;11.32;;;3.92;;
51915;SDS011;37942;53.218;6.548;2022-08-11T08:36:02;8.60;;;3.35;;
51915;SDS011;37942;53.218;6.548;2022-08-11T08:38:41;12.25;;;3.60;;
51915;SDS011;37942;53.218;6.548;2022-08-11T08:41:08;12.07;;;3.97;;
51915;SDS011;37942;53.218;6.548;2022-08-11T08:43:35;10.48;;;3.63;;
51915;SDS011;37942;53.218;6.548;2022-08-11T08:46:02;11.75;;;3.40;;
51915;SDS011;37942;53.218;6.548;2022-08-11T08:48:30;9.48;;;3.38;;
51915;SDS011;37942;53.218;6.548;2022-08-11T08:50:59;13.00;;;3.65;;
51915;SDS011;37942;53.218;6.548;2022-08-11T08:53:46;11.35;;;3.30;;
51915;SDS011;37942;53.218;6.548;2022-08-11T08:56:13;12.38;;;3.10;;
51915;SDS011;37942;53.218;6.548;2022-08-11T08:58:48;11.63;;;3.10;;
51915;SDS011;37942;53.218;6.548;2022-08-11T09:01:15;12.05;;;3.33;;
51915;SDS011;37942;53.218;6.548;2022-08-11T09:03:41;10.90;;;3.10;;
51915;SDS011;37942;53.218;6.548;2022-08-11T09:06:08;10.57;;;3.40;;
51915;SDS011;37942;53.218;6.548;2022-08-11T09:08:34;8.55;;;3.10;;
51915;SDS011;37942;53.218;6.548;2022-08-11T09:11:01;11.93;;;3.17;;
51915;SDS011;37942;53.218;6.548;2022-08-11T09:13:47;12.95;;;3.15;;
51915;SDS011;37942;53.218;6.548;2022-08-11T09:16:14;9.93;;;3.35;;
51915;SDS011;37942;53.218;6.548;2022-08-11T09:18:40;11.82;;;2.97;;
51915;SDS011;37942;53.218;6.548;2022-08-11T09:21:09;10.07;;;3.40;;
51915;SDS011;37942;53.218;6.548;2022-08-11T09:23:37;8.15;;;3.42;;
51915;SDS011;37942;53.218;6.548;2022-08-11T09:26:22;11.77;;;3.50;;
51915;SDS011;37942;53.218;6.548;2022-08-11T09:29:09;10.27;;;3.45;;
51915;SDS011;37942;53.218;6.548;2022-08-11T09:31:36;15.73;;;3.45;;
51915;SDS011;37942;53.218;6.548;2022-08-11T09:34:03;10.57;;;3.45;;
51915;SDS011;37942;53.218;6.548;2022-08-11T09:36:29;9.63;;;2.85;;
51915;SDS011;37942;53.218;6.548;2022-08-11T09:39:14;9.70;;;2.80;;
51915;SDS011;37942;53.218;6.548;2022-08-11T09:42:00;9.48;;;2.70;;
51915;SDS011;37942;53.218;6.548;2022-08-11T09:44:27;9.73;;;2.50;;
51915;SDS011;37942;53.218;6.548;2022-08-11T09:47:14;7.95;;;2.70;;
51915;SDS011;37942;53.218;6.548;2022-08-11T09:49:43;11.05;;;3.15;;
51915;SDS011;37942;53.218;6.548;2022-08-11T09:52:10;9.55;;;2.50;;
51915;SDS011;37942;53.218;6.548;2022-08-11T09:54:41;7.85;;;3.13;;
51915;SDS011;37942;53.218;6.548;2022-08-11T09:57:08;10.13;;;2.80;;
51915;SDS011;37942;53.218;6.548;2022-08-11T09:59:52;10.35;;;3.10;;
51915;SDS011;37942;53.218;6.548;2022-08-11T10:02:26;12.35;;;3.05;;
51915;SDS011;37942;53.218;6.548;2022-08-11T10:04:55;8.55;;;2.97;;
51915;SDS011;37942;53.218;6.548;2022-08-11T10:07:41;7.97;;;2.50;;
51915;SDS011;37942;53.218;6.548;2022-08-11T10:10:08;8.38;;;3.00;;
51915;SDS011;37942;53.218;6.548;2022-08-11T10:12:35;7.65;;;2.85;;
51915;SDS011;37942;53.218;6.548;2022-08-11T10:15:09;9.52;;;3.08;;
51915;SDS011;37942;53.218;6.548;2022-08-11T10:17:57;8.73;;;2.70;;
51915;SDS011;37942;53.218;6.548;2022-08-11T10:20:47;9.57;;;3.28;;
51915;SDS011;37942;53.218;6.548;2022-08-11T10:23:17;10.95;;;3.00;;
51915;SDS011;37942;53.218;6.548;2022-08-11T10:26:02;8.02;;;2.53;;
51915;SDS011;37942;53.218;6.548;2022-08-11T10:28:48;10.95;;;2.83;;
51915;SDS011;37942;53.218;6.548;2022-08-11T10:31:14;11.48;;;2.60;;
51915;SDS011;37942;53.218;6.548;2022-08-11T10:34:00;8.82;;;2.83;;
51915;SDS011;37942;53.218;6.548;2022-08-11T10:36:34;7.95;;;2.70;;
51915;SDS011;37942;53.218;6.548;2022-08-11T10:39:07;7.93;;;2.50;;
51915;SDS011;37942;53.218;6.548;2022-08-11T10:41:40;9.00;;;2.67;;
51915;SDS011;37942;53.218;6.548;2022-08-11T10:44:25;7.75;;;2.50;;
51915;SDS011;37942;53.218;6.548;2022-08-11T10:46:51;8.35;;;2.70;;
51915;SDS011;37942;53.218;6.548;2022-08-11T10:49:36;8.52;;;2.53;;
51915;SDS011;37942;53.218;6.548;2022-08-11T10:52:02;9.00;;;2.53;;
51915;SDS011;37942;53.218;6.548;2022-08-11T10:54:50;12.73;;;3.00;;
51915;SDS011;37942;53.218;6.548;2022-08-11T10:57:36;9.50;;;2.70;;
51915;SDS011;37942;53.218;6.548;2022-08-11T11:00:21;7.70;;;2.67;;
51915;SDS011;37942;53.218;6.548;2022-08-11T11:02:48;7.30;;;2.65;;
51915;SDS011;37942;53.218;6.548;2022-08-11T11:05:23;8.27;;;3.00;;
51915;SDS011;37942;53.218;6.548;2022-08-11T11:10:21;6.03;;;2.45;;
51915;SDS011;37942;53.218;6.548;2022-08-11T11:12:50;7.38;;;2.60;;
51915;SDS011;37942;53.218;6.548;2022-08-11T11:15:36;8.65;;;2.92;;
51915;SDS011;37942;53.218;6.548;2022-08-11T11:18:24;10.40;;;2.67;;
51915;SDS011;37942;53.218;6.548;2022-08-11T11:21:04;10.82;;;3.33;;
51915;SDS011;37942;53.218;6.548;2022-08-11T11:23:47;10.13;;;3.25;;
51915;SDS011;37942;53.218;6.548;2022-08-11T11:29:06;7.78;;;3.00;;
51915;SDS011;37942;53.218;6.548;2022-08-11T11:36:53;13.40;;;3.45;;
51915;SDS011;37942;53.218;6.548;2022-08-11T11:39:22;10.60;;;3.30;;
51915;SDS011;37942;53.218;6.548;2022-08-11T11:41:49;11.18;;;3.25;;
51915;SDS011;37942;53.218;6.548;2022-08-11T11:44:16;11.40;;;3.30;;
51915;SDS011;37942;53.218;6.548;2022-08-11T11:46:42;12.02;;;3.40;;
51915;SDS011;37942;53.218;6.548;2022-08-11T11:49:09;8.23;;;3.13;;
51915;SDS011;37942;53.218;6.548;2022-08-11T11:51:36;11.00;;;3.28;;
51915;SDS011;37942;53.218;6.548;2022-08-11T11:54:03;8.57;;;3.00;;
51915;SDS011;37942;53.218;6.548;2022-08-11T11:56:29;8.85;;;2.88;;
51915;SDS011;37942;53.218;6.548;2022-08-11T11:58:56;9.70;;;2.80;;
51915;SDS011;37942;53.218;6.548;2022-08-11T12:01:41;9.23;;;2.97;;
51915;SDS011;37942;53.218;6.548;2022-08-11T12:04:07;10.23;;;3.00;;
51915;SDS011;37942;53.218;6.548;2022-08-11T12:06:38;13.02;;;3.28;;
51915;SDS011;37942;53.218;6.548;2022-08-11T12:09:05;8.13;;;3.00;;
51915;SDS011;37942;53.218;6.548;2022-08-11T12:11:31;8.18;;;2.70;;
51915;SDS011;37942;53.218;6.548;2022-08-11T12:14:17;8.93;;;2.72;;
51915;SDS011;37942;53.218;6.548;2022-08-11T12:16:44;8.50;;;2.55;;
51915;SDS011;37942;53.218;6.548;2022-08-11T12:19:16;8.00;;;2.70;;
51915;SDS011;37942;53.218;6.548;2022-08-11T12:21:42;10.30;;;2.60;;
51915;SDS011;37942;53.218;6.548;2022-08-11T12:24:28;5.80;;;2.40;;
51915;SDS011;37942;53.218;6.548;2022-08-11T12:27:13;8.68;;;2.60;;
51915;SDS011;37942;53.218;6.548;2022-08-11T12:29:50;8.02;;;2.65;;
51915;SDS011;37942;53.218;6.548;2022-08-11T12:32:16;9.07;;;2.72;;
51915;SDS011;37942;53.218;6.548;2022-08-11T12:34:43;8.13;;;2.20;;
51915;SDS011;37942;53.218;6.548;2022-08-11T12:37:09;8.02;;;2.50;;
51915;SDS011;37942;53.218;6.548;2022-08-11T12:39:38;7.30;;;2.58;;
51915;SDS011;37942;53.218;6.548;2022-08-11T12:42:25;10.82;;;2.83;;
51915;SDS011;37942;53.218;6.548;2022-08-11T12:45:11;7.75;;;2.70;;
51915;SDS011;37942;53.218;6.548;2022-08-11T12:47:58;7.10;;;2.60;;
51915;SDS011;37942;53.218;6.548;2022-08-11T12:50:44;9.80;;;2.90;;
51915;SDS011;37942;53.218;6.548;2022-08-11T12:53:31;7.63;;;2.70;;
51915;SDS011;37942;53.218;6.548;2022-08-11T12:56:01;12.38;;;2.97;;
51915;SDS011;37942;53.218;6.548;2022-08-11T12:58:47;8.85;;;2.58;;
51915;SDS011;37942;53.218;6.548;2022-08-11T13:01:15;9.50;;;2.78;;
51915;SDS011;37942;53.218;6.548;2022-08-11T13:04:00;9.77;;;2.85;;
51915;SDS011;37942;53.218;6.548;2022-08-11T13:06:46;7.88;;;2.65;;
51915;SDS011;37942;53.218;6.548;2022-08-11T13:09:15;7.38;;;2.40;;
51915;SDS011;37942;53.218;6.548;2022-08-11T13:11:45;7.45;;;2.53;;
51915;SDS011;37942;53.218;6.548;2022-08-11T13:14:30;7.40;;;2.55;;
51915;SDS011;37942;53.218;6.548;2022-08-11T13:16:57;6.82;;;2.40;;
51915;SDS011;37942;53.218;6.548;2022-08-11T13:19:42;7.53;;;2.65;;
51915;SDS011;37942;53.218;6.548;2022-08-11T13:22:09;9.88;;;2.67;;
51915;SDS011;37942;53.218;6.548;2022-08-11T13:24:36;7.20;;;2.47;;
51915;SDS011;37942;53.218;6.548;2022-08-11T13:27:04;6.90;;;2.50;;
51915;SDS011;37942;53.218;6.548;2022-08-11T13:29:30;6.25;;;2.30;;
51915;SDS011;37942;53.218;6.548;2022-08-11T13:31:57;6.65;;;2.20;;
51915;SDS011;37942;53.218;6.548;2022-08-11T13:34:26;8.38;;;2.58;;
51915;SDS011;37942;53.218;6.548;2022-08-11T13:36:55;7.85;;;2.30;;
51915;SDS011;37942;53.218;6.548;2022-08-11T13:39:24;7.05;;;2.50;;
51915;SDS011;37942;53.218;6.548;2022-08-11T13:41:51;7.68;;;2.58;;
51915;SDS011;37942;53.218;6.548;2022-08-11T13:44:18;12.80;;;3.08;;
51915;SDS011;37942;53.218;6.548;2022-08-11T13:46:44;13.57;;;2.70;;
51915;SDS011;37942;53.218;6.548;2022-08-11T13:49:10;8.50;;;2.50;;
51915;SDS011;37942;53.218;6.548;2022-08-11T13:51:40;7.82;;;2.50;;
51915;SDS011;37942;53.218;6.548;2022-08-11T13:54:11;4.28;;;1.95;;
51915;SDS011;37942;53.218;6.548;2022-08-11T13:56:43;12.70;;;2.83;;
51915;SDS011;37942;53.218;6.548;2022-08-11T13:59:10;8.40;;;2.70;;
51915;SDS011;37942;53.218;6.548;2022-08-11T14:01:38;6.50;;;2.30;;
51915;SDS011;37942;53.218;6.548;2022-08-11T14:04:09;11.13;;;2.50;;
51915;SDS011;37942;53.218;6.548;2022-08-11T14:06:37;7.78;;;2.40;;
51915;SDS011;37942;53.218;6.548;2022-08-11T14:09:08;8.43;;;2.47;;
51915;SDS011;37942;53.218;6.548;2022-08-11T14:11:34;7.15;;;2.47;;
51915;SDS011;37942;53.218;6.548;2022-08-11T14:14:22;7.70;;;2.53;;
51915;SDS011;37942;53.218;6.548;2022-08-11T14:16:50;9.38;;;2.70;;
51915;SDS011;37942;53.218;6.548;2022-08-11T14:19:18;8.27;;;2.67;;
51915;SDS011;37942;53.218;6.548;2022-08-11T14:21:46;6.47;;;2.47;;
51915;SDS011;37942;53.218;6.548;2022-08-11T14:24:31;8.40;;;2.47;;
51915;SDS011;37942;53.218;6.548;2022-08-11T14:26:57;8.88;;;2.55;;
51915;SDS011;37942;53.218;6.548;2022-08-11T14:29:25;11.88;;;2.95;;
51915;SDS011;37942;53.218;6.548;2022-08-11T14:31:53;6.35;;;2.55;;
51915;SDS011;37942;53.218;6.548;2022-08-11T14:34:19;6.55;;;2.22;;
51915;SDS011;37942;53.218;6.548;2022-08-11T14:36:48;9.88;;;2.72;;
51915;SDS011;37942;53.218;6.548;2022-08-11T14:39:17;18.40;;;3.08;;
51915;SDS011;37942;53.218;6.548;2022-08-11T14:41:44;10.07;;;3.05;;
51915;SDS011;37942;53.218;6.548;2022-08-11T14:44:30;9.40;;;3.05;;
51915;SDS011;37942;53.218;6.548;2022-08-11T14:47:16;8.73;;;2.70;;
51915;SDS011;37942;53.218;6.548;2022-08-11T14:49:42;11.25;;;2.42;;
51915;SDS011;37942;53.218;6.548;2022-08-11T14:52:10;7.45;;;2.50;;
51915;SDS011;37942;53.218;6.548;2022-08-11T14:54:39;7.57;;;2.50;;
51915;SDS011;37942;53.218;6.548;2022-08-11T14:57:25;8.87;;;2.80;;
51915;SDS011;37942;53.218;6.548;2022-08-11T14:59:52;7.05;;;2.53;;
51915;SDS011;37942;53.218;6.548;2022-08-11T15:02:19;8.30;;;2.45;;
51915;SDS011;37942;53.218;6.548;2022-08-11T15:05:05;9.73;;;2.70;;
51915;SDS011;37942;53.218;6.548;2022-08-11T15:07:31;10.23;;;2.60;;
51915;SDS011;37942;53.218;6.548;2022-08-11T15:09:58;8.73;;;2.53;;
51915;SDS011;37942;53.218;6.548;2022-08-11T15:12:26;12.82;;;2.80;;
51915;SDS011;37942;53.218;6.548;2022-08-11T15:14:52;7.35;;;2.50;;
51915;SDS011;37942;53.218;6.548;2022-08-11T15:17:37;8.30;;;2.72;;
51915;SDS011;37942;53.218;6.548;2022-08-11T15:20:08;7.65;;;2.50;;
51915;SDS011;37942;53.218;6.548;2022-08-11T15:22:53;11.18;;;3.08;;
51915;SDS011;37942;53.218;6.548;2022-08-11T15:25:37;9.63;;;3.05;;
51915;SDS011;37942;53.218;6.548;2022-08-11T15:28:05;9.23;;;2.80;;
51915;SDS011;37942;53.218;6.548;2022-08-11T15:30:55;6.45;;;2.47;;
51915;SDS011;37942;53.218;6.548;2022-08-11T15:33:40;9.38;;;2.83;;
51915;SDS011;37942;53.218;6.548;2022-08-11T15:36:27;11.13;;;3.05;;
51915;SDS011;37942;53.218;6.548;2022-08-11T15:39:18;8.57;;;2.90;;
51915;SDS011;37942;53.218;6.548;2022-08-11T15:41:46;8.27;;;2.30;;
51915;SDS011;37942;53.218;6.548;2022-08-11T15:44:33;11.15;;;2.50;;
51915;SDS011;37942;53.218;6.548;2022-08-11T15:47:22;10.38;;;2.90;;
51915;SDS011;37942;53.218;6.548;2022-08-11T15:49:52;8.45;;;2.80;;
51915;SDS011;37942;53.218;6.548;2022-08-11T15:52:24;10.30;;;2.90;;
51915;SDS011;37942;53.218;6.548;2022-08-11T15:54:51;9.98;;;2.70;;
51915;SDS011;37942;53.218;6.548;2022-08-11T15:57:18;14.80;;;3.10;;
51915;SDS011;37942;53.218;6.548;2022-08-11T16:00:21;10.85;;;2.83;;
51915;SDS011;37942;53.218;6.548;2022-08-11T16:03:05;8.45;;;2.85;;
51915;SDS011;37942;53.218;6.548;2022-08-11T16:06:11;10.05;;;2.90;;
51915;SDS011;37942;53.218;6.548;2022-08-11T16:08:38;8.85;;;2.90;;
51915;SDS011;37942;53.218;6.548;2022-08-11T16:11:05;10.23;;;2.97;;
51915;SDS011;37942;53.218;6.548;2022-08-11T16:13:33;8.65;;;2.72;;
51915;SDS011;37942;53.218;6.548;2022-08-11T16:16:00;13.38;;;3.00;;
51915;SDS011;37942;53.218;6.548;2022-08-11T16:18:52;11.00;;;3.10;;
51915;SDS011;37942;53.218;6.548;2022-08-11T16:21:28;7.47;;;2.70;;
51915;SDS011;37942;53.218;6.548;2022-08-11T16:23:55;7.53;;;2.92;;
51915;SDS011;37942;53.218;6.548;2022-08-11T16:26:23;12.60;;;2.90;;
51915;SDS011;37942;53.218;6.548;2022-08-11T16:28:54;8.52;;;2.70;;
51915;SDS011;37942;53.218;6.548;2022-08-11T16:31:20;9.82;;;3.10;;
51915;SDS011;37942;53.218;6.548;2022-08-11T16:33:47;11.48;;;2.90;;
51915;SDS011;37942;53.218;6.548;2022-08-11T16:36:15;19.10;;;3.63;;
51915;SDS011;37942;53.218;6.548;2022-08-11T16:39:00;10.43;;;2.80;;
51915;SDS011;37942;53.218;6.548;2022-08-11T16:41:28;9.93;;;2.97;;
51915;SDS011;37942;53.218;6.548;2022-08-11T16:44:14;9.88;;;3.35;;
51915;SDS011;37942;53.218;6.548;2022-08-11T16:46:59;7.22;;;2.60;;
51915;SDS011;37942;53.218;6.548;2022-08-11T16:49:30;12.60;;;3.13;;
51915;SDS011;37942;53.218;6.548;2022-08-11T16:51:57;10.00;;;2.88;;
51915;SDS011;37942;53.218;6.548;2022-08-11T16:54:28;9.30;;;2.60;;
51915;SDS011;37942;53.218;6.548;2022-08-11T16:56:54;11.45;;;3.22;;
51915;SDS011;37942;53.218;6.548;2022-08-11T16:59:35;11.55;;;3.13;;
51915;SDS011;37942;53.218;6.548;2022-08-11T17:02:05;21.80;;;3.35;;
51915;SDS011;37942;53.218;6.548;2022-08-11T17:07:28;11.73;;;3.08;;
51915;SDS011;37942;53.218;6.548;2022-08-11T17:13:01;10.90;;;2.80;;
51915;SDS011;37942;53.218;6.548;2022-08-11T17:15:35;8.57;;;2.95;;
51915;SDS011;37942;53.218;6.548;2022-08-11T17:18:21;9.27;;;3.05;;
51915;SDS011;37942;53.218;6.548;2022-08-11T17:21:11;10.85;;;2.83;;
51915;SDS011;37942;53.218;6.548;2022-08-11T17:23:39;9.50;;;3.28;;
51915;SDS011;37942;53.218;6.548;2022-08-11T17:26:32;8.20;;;3.22;;
51915;SDS011;37942;53.218;6.548;2022-08-11T17:32:06;8.05;;;3.10;;
51915;SDS011;37942;53.218;6.548;2022-08-11T17:34:52;10.23;;;3.13;;
51915;SDS011;37942;53.218;6.548;2022-08-11T17:37:38;10.30;;;3.25;;
51915;SDS011;37942;53.218;6.548;2022-08-11T17:40:09;9.68;;;2.80;;
51915;SDS011;37942;53.218;6.548;2022-08-11T17:42:38;10.48;;;3.00;;
51915;SDS011;37942;53.218;6.548;2022-08-11T17:45:28;10.38;;;3.42;;
51915;SDS011;37942;53.218;6.548;2022-08-11T17:48:13;8.63;;;3.22;;
51915;SDS011;37942;53.218;6.548;2022-08-11T17:50:52;10.40;;;3.70;;
51915;SDS011;37942;53.218;6.548;2022-08-11T17:53:18;9.40;;;2.90;;
51915;SDS011;37942;53.218;6.548;2022-08-11T17:56:04;11.70;;;3.08;;
51915;SDS011;37942;53.218;6.548;2022-08-11T17:58:58;12.13;;;3.40;;
51915;SDS011;37942;53.218;6.548;2022-08-11T18:01:44;12.45;;;3.55;;
51915;SDS011;37942;53.218;6.548;2022-08-11T18:04:12;9.10;;;2.80;;
51915;SDS011;37942;53.218;6.548;2022-08-11T18:06:39;10.13;;;3.17;;
51915;SDS011;37942;53.218;6.548;2022-08-11T18:09:13;9.05;;;2.85;;
51915;SDS011;37942;53.218;6.548;2022-08-11T18:11:59;12.43;;;3.20;;
51915;SDS011;37942;53.218;6.548;2022-08-11T18:14:45;13.00;;;3.20;;
51915;SDS011;37942;53.218;6.548;2022-08-11T18:17:30;9.02;;;3.05;;
51915;SDS011;37942;53.218;6.548;2022-08-11T18:20:15;10.18;;;3.05;;
51915;SDS011;37942;53.218;6.548;2022-08-11T18:23:02;8.77;;;3.05;;
51915;SDS011;37942;53.218;6.548;2022-08-11T18:25:47;10.77;;;3.20;;
51915;SDS011;37942;53.218;6.548;2022-08-11T18:28:38;7.77;;;2.90;;
51915;SDS011;37942;53.218;6.548;2022-08-11T18:31:25;12.32;;;3.25;;
51915;SDS011;37942;53.218;6.548;2022-08-11T18:34:11;8.15;;;2.80;;
51915;SDS011;37942;53.218;6.548;2022-08-11T18:37:03;10.68;;;3.30;;
51915;SDS011;37942;53.218;6.548;2022-08-11T18:39:59;8.07;;;2.83;;
51915;SDS011;37942;53.218;6.548;2022-08-11T18:42:46;13.90;;;3.25;;
51915;SDS011;37942;53.218;6.548;2022-08-11T18:45:31;9.93;;;3.20;;
51915;SDS011;37942;53.218;6.548;2022-08-11T18:48:19;10.27;;;3.03;;
51915;SDS011;37942;53.218;6.548;2022-08-11T18:51:07;11.95;;;2.97;;
51915;SDS011;37942;53.218;6.548;2022-08-11T18:53:55;16.73;;;3.78;;
51915;SDS011;37942;53.218;6.548;2022-08-11T18:56:44;15.35;;;3.30;;
51915;SDS011;37942;53.218;6.548;2022-08-11T18:59:30;11.27;;;2.88;;
51915;SDS011;37942;53.218;6.548;2022-08-11T19:02:15;9.75;;;3.20;;
51915;SDS011;37942;53.218;6.548;2022-08-11T19:05:00;10.43;;;2.90;;
51915;SDS011;37942;53.218;6.548;2022-08-11T19:07:45;9.82;;;3.40;;
51915;SDS011;37942;53.218;6.548;2022-08-11T19:10:32;8.95;;;2.83;;
51915;SDS011;37942;53.218;6.548;2022-08-11T19:13:16;10.50;;;3.03;;
51915;SDS011;37942;53.218;6.548;2022-08-11T19:16:03;10.00;;;2.90;;